Time;durP1;ratioP1;P1;durP2;ratioP2;P2;SDS_P1;SDS_P2;PMS_P1;PMS_P2;Temp;Humidity;BMP_temperature;BMP_pressure;BME280_temperature;BME280_humidity;BME280_pressure;Samples;Min_cycle;Max_cycle;Signal;HPM_P1;HPM_P2
2022/07/13 00:03:01;;;;;;;1999.90;999.90;;;;;;;14.58;100.00;99935.75;5043820;28;20574;-54
2022/07/13 00:05:45;;;;;;;1999.90;999.90;;;;;;;14.40;100.00;99939.97;5043668;28;20144;-54
2022/07/13 00:08:30;;;;;;;1999.90;999.90;;;;;;;14.61;100.00;99933.88;5044499;28;20060;-54
2022/07/13 00:11:14;;;;;;;1999.90;999.90;;;;;;;14.40;100.00;99924.16;5042906;28;20110;-54
2022/07/13 00:13:58;;;;;;;1999.90;999.90;;;;;;;14.42;100.00;99933.69;5045150;28;20069;-54
2022/07/13 00:16:43;;;;;;;1999.90;999.90;;;;;;;14.32;100.00;99934.97;5045637;28;20432;-54
2022/07/13 00:19:27;;;;;;;1999.90;999.90;;;;;;;14.32;100.00;99934.13;5045555;28;20048;-54
2022/07/13 00:22:11;;;;;;;1999.90;999.90;;;;;;;14.30;100.00;99936.81;5043273;28;20045;-54
2022/07/13 00:24:56;;;;;;;1999.90;999.90;;;;;;;14.39;100.00;99931.16;5044078;28;20884;-54
2022/07/13 00:27:40;;;;;;;1999.90;999.90;;;;;;;14.39;100.00;99936.44;5046945;28;20384;-54
2022/07/13 00:30:24;;;;;;;1999.90;999.90;;;;;;;14.40;100.00;99934.69;5045803;28;20049;-54
2022/07/13 00:33:09;;;;;;;1999.90;999.90;;;;;;;14.44;100.00;99933.66;5043981;28;20049;-54
2022/07/13 00:35:53;;;;;;;1999.90;999.90;;;;;;;14.50;100.00;99930.78;5044109;28;20051;-55
2022/07/13 00:38:37;;;;;;;1999.90;999.90;;;;;;;14.47;100.00;99928.25;5043164;28;20040;-55
2022/07/13 00:41:22;;;;;;;1999.90;999.90;;;;;;;14.52;100.00;99930.72;5044044;28;20075;-54
2022/07/13 00:44:10;;;;;;;1999.90;999.90;;;;;;;14.43;100.00;99927.53;5039930;28;20056;-55
2022/07/13 00:46:54;;;;;;;1999.90;999.90;;;;;;;14.45;100.00;99922.19;5043513;28;20063;-54
2022/07/13 00:49:39;;;;;;;1999.90;999.90;;;;;;;14.48;100.00;99922.06;5043365;28;20052;-54
2022/07/13 00:52:24;;;;;;;1999.90;999.90;;;;;;;14.57;100.00;99915.59;5044685;28;20637;-54
2022/07/13 00:55:09;;;;;;;1999.90;999.90;;;;;;;14.68;100.00;99921.28;5045376;28;20543;-54
2022/07/13 00:57:54;;;;;;;1999.90;999.90;;;;;;;14.60;100.00;99918.13;5042631;28;20060;-54
2022/07/13 01:00:39;;;;;;;1999.90;999.90;;;;;;;14.72;100.00;99921.13;5044607;28;20044;-54
2022/07/13 01:03:24;;;;;;;1999.90;999.90;;;;;;;14.69;100.00;99923.03;5044745;28;20558;-54
2022/07/13 01:06:08;;;;;;;1999.90;999.90;;;;;;;14.72;100.00;99923.75;5042448;28;20408;-54
2022/07/13 01:08:53;;;;;;;1999.90;999.90;;;;;;;14.73;100.00;99921.97;5043394;28;20053;-55
2022/07/13 01:11:39;;;;;;;1999.90;999.90;;;;;;;14.69;100.00;99923.88;5041007;28;20048;-55
2022/07/13 01:14:24;;;;;;;1999.90;999.90;;;;;;;14.77;100.00;99915.66;5042821;28;20126;-55
2022/07/13 01:17:09;;;;;;;1999.90;999.90;;;;;;;14.71;100.00;99921.19;5043514;28;20051;-54
2022/07/13 01:19:55;;;;;;;1999.90;999.90;;;;;;;14.72;100.00;99917.59;5044150;28;20099;-54
2022/07/13 01:22:44;;;;;;;1999.90;999.90;;;;;;;14.70;100.00;99922.97;5044241;28;20060;-54
2022/07/13 01:25:29;;;;;;;1999.90;999.90;;;;;;;14.64;100.00;99920.56;5045876;28;20495;-55
2022/07/13 01:28:14;;;;;;;1999.90;999.90;;;;;;;14.73;100.00;99912.28;5044941;28;21394;-54
2022/07/13 01:30:58;;;;;;;1999.90;999.90;;;;;;;14.70;100.00;99916.84;5045443;28;20045;-54
2022/07/13 01:33:42;;;;;;;1999.90;999.90;;;;;;;14.78;100.00;99914.72;5044468;28;20049;-54
2022/07/13 01:36:28;;;;;;;1999.90;999.90;;;;;;;14.73;100.00;99908.81;5043871;28;20057;-55
2022/07/13 01:39:12;;;;;;;1999.90;999.90;;;;;;;14.79;100.00;99910.34;5044126;28;20079;-54
2022/07/13 01:41:57;;;;;;;1999.90;999.90;;;;;;;14.93;100.00;99913.25;5043827;28;20052;-54
2022/07/13 01:44:41;;;;;;;1999.90;999.90;;;;;;;14.83;100.00;99906.66;5046383;28;20052;-54
2022/07/13 01:47:25;;;;;;;1999.90;999.90;;;;;;;14.75;100.00;99906.09;5046236;28;20531;-55
2022/07/13 01:50:11;;;;;;;1999.90;999.90;;;;;;;14.85;100.00;99912.69;5046541;28;20503;-54
2022/07/13 01:52:57;;;;;;;1999.90;999.90;;;;;;;14.80;100.00;99909.41;5047127;28;20533;-56
2022/07/13 01:55:41;;;;;;;1999.90;999.90;;;;;;;14.82;100.00;99905.78;5046756;28;20067;-55
2022/07/13 01:58:28;;;;;;;1999.90;999.90;;;;;;;14.91;100.00;99904.53;5048387;28;20538;-54
2022/07/13 02:01:13;;;;;;;1999.90;999.90;;;;;;;14.84;100.00;99903.09;5044836;28;20079;-54
2022/07/13 02:03:58;;;;;;;1999.90;999.90;;;;;;;14.80;100.00;99902.34;5048508;28;20053;-55
2022/07/13 02:06:42;;;;;;;1999.90;999.90;;;;;;;14.84;100.00;99903.94;5046784;28;20099;-54
2022/07/13 02:09:27;;;;;;;1999.90;999.90;;;;;;;14.84;100.00;99903.94;5050418;28;20048;-54
2022/07/13 02:12:11;;;;;;;1999.90;999.90;;;;;;;14.76;100.00;99897.28;5050492;28;20055;-55
2022/07/13 02:14:55;;;;;;;1999.90;999.90;;;;;;;14.82;100.00;99891.72;5047650;28;20118;-54
2022/07/13 02:17:40;;;;;;;1999.90;999.90;;;;;;;14.68;100.00;99877.34;5047873;28;20389;-55
2022/07/13 02:20:25;;;;;;;1999.90;999.90;;;;;;;14.82;100.00;99881.19;5046001;28;20053;-54
2022/07/13 02:23:09;;;;;;;1999.90;999.90;;;;;;;14.81;100.00;99884.75;5049542;28;20060;-55
2022/07/13 02:25:53;;;;;;;1999.90;999.90;;;;;;;14.83;100.00;99875.00;5046865;28;20053;-54
2022/07/13 02:28:37;;;;;;;1999.90;999.90;;;;;;;14.77;100.00;99878.75;5046776;28;20052;-54
2022/07/13 02:31:22;;;;;;;1999.90;999.90;;;;;;;14.80;100.00;99870.72;5045968;28;20075;-55
2022/07/13 02:34:07;;;;;;;1999.90;999.90;;;;;;;14.77;100.00;99873.47;5047817;28;20056;-54
2022/07/13 02:36:51;;;;;;;1999.90;999.90;;;;;;;14.80;100.00;99869.88;5046660;28;20087;-55
2022/07/13 02:39:36;;;;;;;1999.90;999.90;;;;;;;14.84;100.00;99876.72;5044836;28;20068;-55
2022/07/13 02:42:20;;;;;;;1999.90;999.90;;;;;;;14.82;100.00;99879.44;5045860;28;20057;-55
2022/07/13 02:45:06;;;;;;;1999.90;999.90;;;;;;;14.92;100.00;99872.84;5046316;28;20059;-54
2022/07/13 02:47:50;;;;;;;1999.90;999.90;;;;;;;14.98;100.00;99863.78;5043331;28;20048;-55
2022/07/13 02:50:35;;;;;;;1999.90;999.90;;;;;;;14.90;100.00;99873.81;5047182;28;20079;-55
2022/07/13 02:53:19;;;;;;;1999.90;999.90;;;;;;;14.99;100.00;99868.16;5045902;28;20138;-54
2022/07/13 02:56:06;;;;;;;1999.90;999.90;;;;;;;14.98;100.00;99868.22;5045330;28;20064;-55
2022/07/13 02:58:52;;;;;;;1999.90;999.90;;;;;;;14.96;100.00;99860.38;5061998;28;20116;-55
2022/07/13 03:01:36;;;;;;;1999.90;999.90;;;;;;;14.93;100.00;99858.72;5062692;28;20056;-55
2022/07/13 03:04:21;;;;;;;1999.90;999.90;;;;;;;14.98;100.00;99862.94;5049884;28;20177;-54
2022/07/13 03:07:06;;;;;;;1999.90;999.90;;;;;;;15.02;100.00;99864.56;5046201;28;20052;-55
2022/07/13 03:09:52;;;;;;;1999.90;999.90;;;;;;;15.00;100.00;99861.13;5045548;28;20057;-55
2022/07/13 03:12:36;;;;;;;1999.90;999.90;;;;;;;15.03;100.00;99861.84;5044118;28;20148;-55
2022/07/13 03:15:23;;;;;;;1999.90;999.90;;;;;;;15.05;100.00;99872.34;5044081;28;20487;-55
2022/07/13 03:18:07;;;;;;;1999.90;999.90;;;;;;;15.05;100.00;99872.34;5046037;28;20048;-55
2022/07/13 03:20:54;;;;;;;1999.90;999.90;;;;;;;15.12;100.00;99874.63;5062325;28;20506;-55
2022/07/13 03:23:38;;;;;;;1999.90;999.90;;;;;;;15.12;100.00;99873.78;5048286;28;20083;-55
2022/07/13 03:26:24;;;;;;;1999.90;999.90;;;;;;;15.18;100.00;99865.63;5048355;28;20053;-55
2022/07/13 03:29:10;;;;;;;1999.90;999.90;;;;;;;15.13;100.00;99870.22;5046511;28;20052;-55
2022/07/13 03:31:54;;;;;;;1999.90;999.90;;;;;;;15.20;100.00;99867.25;5047613;28;20685;-55
2022/07/13 03:34:39;;;;;;;1999.90;999.90;;;;;;;15.23;100.00;99873.31;5064072;28;20095;-55
2022/07/13 03:37:24;;;;;;;1999.90;999.90;;;;;;;15.22;100.00;99879.53;5049190;28;20057;-55
2022/07/13 03:40:12;;;;;;;1999.90;999.90;;;;;;;15.37;100.00;99878.84;5048836;28;20043;-55
2022/07/13 03:42:56;;;;;;;1999.90;999.90;;;;;;;15.35;100.00;99865.72;5045820;28;20077;-55
2022/07/13 03:45:40;;;;;;;1999.90;999.90;;;;;;;15.35;100.00;99862.25;5042070;28;20063;-54
2022/07/13 03:48:25;;;;;;;1999.90;999.90;;;;;;;15.39;100.00;99863.81;5042056;28;20056;-54
2022/07/13 03:51:10;;;;;;;1999.90;999.90;;;;;;;15.50;100.00;99871.25;5045621;28;20060;-55
2022/07/13 03:53:54;;;;;;;1999.90;999.90;;;;;;;15.42;100.00;99861.03;5044348;28;20064;-55
2022/07/13 03:56:40;;;;;;;1999.90;999.90;;;;;;;15.58;100.00;99866.50;5052906;28;20049;-54
2022/07/13 03:59:25;;;;;;;1999.90;999.90;;;;;;;15.77;100.00;99871.84;5047845;28;20091;-55
2022/07/13 04:02:10;;;;;;;1999.90;999.90;;;;;;;15.74;100.00;99869.34;5047272;28;20435;-55
2022/07/13 04:04:54;;;;;;;1999.90;999.90;;;;;;;15.86;100.00;99884.63;5045954;28;20052;-55
2022/07/13 04:07:41;;;;;;;1999.90;999.90;;;;;;;16.09;100.00;99876.50;5042268;28;20452;-55
2022/07/13 04:10:25;;;;;;;1999.90;999.90;;;;;;;16.11;100.00;99865.84;5047134;28;20507;-55
2022/07/13 04:13:10;;;;;;;1999.90;999.90;;;;;;;16.41;100.00;99865.31;5046893;28;20060;-56
2022/07/13 04:15:54;;;;;;;1999.90;999.90;;;;;;;16.90;100.00;99866.47;5042987;28;20055;-55
2022/07/13 04:18:39;;;;;;;1999.90;999.90;;;;;;;17.14;100.00;99869.66;5044048;28;20048;-55
2022/07/13 04:21:24;;;;;;;1999.90;999.90;;;;;;;17.50;100.00;99863.38;5061630;28;20202;-54
2022/07/13 04:24:08;;;;;;;1999.90;999.90;;;;;;;17.60;100.00;99864.59;5045797;28;20048;-55
2022/07/13 04:26:53;;;;;;;1999.90;999.90;;;;;;;17.83;100.00;99868.69;5048021;28;20051;-55
2022/07/13 04:29:38;;;;;;;1999.90;999.90;;;;;;;17.93;100.00;99875.19;5045901;28;20075;-55
2022/07/13 04:32:25;;;;;;;1999.90;999.90;;;;;;;18.11;100.00;99872.50;5046014;28;20052;-55
2022/07/13 04:35:09;;;;;;;1999.90;999.90;;;;;;;18.24;100.00;99872.69;5041964;28;20099;-55
2022/07/13 04:37:57;;;;;;;1999.90;999.90;;;;;;;18.25;100.00;99890.28;5044990;28;20056;-55
2022/07/13 04:40:42;;;;;;;1999.90;999.90;;;;;;;18.43;100.00;99878.66;5040300;28;20042;-55
2022/07/13 04:43:27;;;;;;;1999.90;999.90;;;;;;;18.49;100.00;99872.13;5043808;28;20068;-55
2022/07/13 04:46:13;;;;;;;1999.90;999.90;;;;;;;18.57;100.00;99892.00;5045184;28;20037;-54
2022/07/13 04:48:58;;;;;;;1999.90;999.90;;;;;;;19.31;100.00;99879.78;5040652;28;20077;-55
2022/07/13 04:51:42;;;;;;;1999.90;999.90;;;;;;;19.22;100.00;99881.16;5044601;28;20479;-55
2022/07/13 04:54:29;;;;;;;1999.90;999.90;;;;;;;19.42;100.00;99869.34;5059031;28;20060;-55
2022/07/13 04:57:15;;;;;;;1999.90;999.90;;;;;;;19.47;100.00;99874.41;5045401;28;20099;-56
2022/07/13 05:00:00;;;;;;;1999.90;999.90;;;;;;;19.49;100.00;99875.13;5043912;28;20515;-55
2022/07/13 05:02:44;;;;;;;1999.90;999.90;;;;;;;19.52;100.00;99869.66;5046761;28;20439;-55
2022/07/13 05:05:31;;;;;;;1999.90;999.90;;;;;;;19.50;100.00;99879.50;5058535;28;20055;-55
2022/07/13 05:08:16;;;;;;;1999.90;999.90;;;;;;;19.10;100.00;99874.78;5046096;28;20041;-57
2022/07/13 05:11:02;;;;;;;1999.90;999.90;;;;;;;19.93;100.00;99872.44;5044839;28;20056;-56
2022/07/13 05:13:47;;;;;;;1999.90;999.90;;;;;;;19.74;100.00;99861.25;5042323;28;20079;-56
2022/07/13 05:16:32;;;;;;;1999.90;999.90;;;;;;;20.16;100.00;99868.31;5044824;28;20052;-55
2022/07/13 05:19:18;;;;;;;1999.90;999.90;;;;;;;20.08;100.00;99871.47;5046063;28;20044;-56
2022/07/13 05:22:02;;;;;;;1999.90;999.90;;;;;;;19.89;100.00;99867.38;5045758;28;20048;-57
2022/07/13 05:24:47;;;;;;;1999.90;999.90;;;;;;;20.13;100.00;99863.19;5048246;28;21930;-55
2022/07/13 05:27:33;;;;;;;1999.90;999.90;;;;;;;20.69;100.00;99868.47;5048136;28;20123;-56
2022/07/13 05:30:18;;;;;;;1999.90;999.90;;;;;;;21.06;100.00;99858.91;5045840;28;20067;-56
2022/07/13 05:33:03;;;;;;;1999.90;999.90;;;;;;;20.61;100.00;99866.34;5060568;28;20041;-56
2022/07/13 05:35:47;;;;;;;1999.90;999.90;;;;;;;20.57;100.00;99866.63;5047443;28;20048;-54
2022/07/13 05:38:33;;;;;;;1999.90;999.90;;;;;;;20.89;100.00;99869.81;5074119;28;20052;-57
2022/07/13 05:41:18;;;;;;;1999.90;999.90;;;;;;;21.36;100.00;99863.97;5032927;28;20041;-55
2022/07/13 05:44:04;;;;;;;1999.90;999.90;;;;;;;21.21;100.00;99868.50;5047979;28;20079;-55
2022/07/13 05:46:49;;;;;;;1999.90;999.90;;;;;;;21.29;100.00;99865.31;5046951;28;20426;-56
2022/07/13 05:49:34;;;;;;;1999.90;999.90;;;;;;;21.74;100.00;99876.41;5047401;28;20547;-56
2022/07/13 05:52:19;;;;;;;1999.90;999.90;;;;;;;21.79;100.00;99876.13;5046874;28;20079;-56
2022/07/13 05:55:16;;;;;;;1999.90;999.90;;;;;;;21.98;100.00;99879.19;5047027;28;20042;-55
2022/07/13 05:58:00;;;;;;;1999.90;999.90;;;;;;;22.57;100.00;99881.19;5045674;28;20049;-56
2022/07/13 06:00:45;;;;;;;1999.90;999.90;;;;;;;22.35;100.00;99879.22;5046300;28;20059;-56
2022/07/13 06:03:29;;;;;;;1999.90;999.90;;;;;;;22.07;100.00;99888.34;5045488;28;20075;-57
2022/07/13 06:06:14;;;;;;;1999.90;999.90;;;;;;;22.60;100.00;99878.28;5044256;28;20068;-56
2022/07/13 06:08:58;;;;;;;1999.90;999.90;;;;;;;22.30;100.00;99881.38;5041774;28;20056;-56
2022/07/13 06:11:43;;;;;;;1999.90;999.90;;;;;;;22.29;100.00;99885.00;5042385;28;20048;-56
2022/07/13 06:14:27;;;;;;;1999.90;999.90;;;;;;;22.61;100.00;99880.81;5043492;28;20049;-57
2022/07/13 06:17:12;;;;;;;1999.90;999.90;;;;;;;22.46;100.00;99889.97;5042758;28;20056;-57
2022/07/13 06:19:56;;;;;;;1999.90;999.90;;;;;;;22.64;100.00;99888.59;5042220;28;20060;-57
2022/07/13 06:22:41;;;;;;;1999.90;999.90;;;;;;;22.51;100.00;99893.16;5039719;28;20049;-57
2022/07/13 06:25:25;;;;;;;1999.90;999.90;;;;;;;22.63;98.83;99889.59;5044992;28;20041;-57
2022/07/13 06:28:10;;;;;;;1999.90;999.90;;;;;;;22.77;97.11;99885.88;5048620;28;20060;-57
2022/07/13 06:30:54;;;;;;;1999.90;999.90;;;;;;;22.99;99.47;99874.47;5049801;28;20071;-56
2022/07/13 06:33:41;;;;;;;1999.90;999.90;;;;;;;23.65;97.08;99882.75;5051745;28;20049;-57
2022/07/13 06:36:26;;;;;;;1999.90;999.90;;;;;;;23.39;98.95;99879.44;5050885;28;20095;-57
2022/07/13 06:39:10;;;;;;;1999.90;999.90;;;;;;;23.22;96.07;99887.91;5049947;28;20091;-57
2022/07/13 06:41:55;;;;;;;1999.90;999.90;;;;;;;23.12;96.66;99882.41;5050285;28;20053;-57
2022/07/13 06:44:40;;;;;;;1999.90;999.90;;;;;;;23.37;97.40;99884.06;5049474;28;20060;-57
2022/07/13 06:47:24;;;;;;;1999.90;999.90;;;;;;;23.60;94.60;99874.28;5050517;28;20060;-57
2022/07/13 06:50:09;;;;;;;1999.90;999.90;;;;;;;23.98;94.23;99881.97;5047324;28;20847;-57
2022/07/13 06:52:54;;;;;;;1999.90;999.90;;;;;;;24.57;94.07;99885.28;5044285;28;20051;-57
2022/07/13 06:55:38;;;;;;;1999.90;999.90;;;;;;;24.70;89.90;99875.31;5044876;28;20665;-57
2022/07/13 06:58:22;;;;;;;1999.90;999.90;;;;;;;24.65;90.12;99872.16;5045646;28;20516;-57
2022/07/13 07:01:07;;;;;;;1999.90;999.90;;;;;;;24.79;90.43;99871.84;5044323;28;20056;-57
2022/07/13 07:03:52;;;;;;;1999.90;999.90;;;;;;;24.44;91.07;99880.13;5045500;28;20095;-57
2022/07/13 07:06:36;;;;;;;1999.90;999.90;;;;;;;24.84;88.32;99869.63;5047642;28;20099;-56
2022/07/13 07:09:20;;;;;;;1999.90;999.90;;;;;;;25.07;86.41;99873.06;5050475;28;20052;-57
2022/07/13 07:12:05;;;;;;;1999.90;999.90;;;;;;;25.36;86.37;99881.34;5047842;28;20541;-57
2022/07/13 07:14:49;;;;;;;1999.90;999.90;;;;;;;25.24;88.52;99885.06;5048356;28;20049;-57
2022/07/13 07:17:43;;;;;;;1999.90;999.90;;;;;;;24.80;85.83;99888.78;5050383;28;20053;-57
2022/07/13 07:20:27;;;;;;;1999.90;999.90;;;;;;;25.13;83.75;99891.34;5049924;28;20499;-57
2022/07/13 07:23:12;;;;;;;1999.90;999.90;;;;;;;25.53;86.70;99884.41;5048915;28;20049;-56
2022/07/13 07:25:56;;;;;;;1999.90;999.90;;;;;;;25.42;84.43;99869.25;5047525;28;20056;-58
2022/07/13 07:28:41;;;;;;;1999.90;999.90;;;;;;;25.28;85.52;99880.28;5050691;28;20056;-57
2022/07/13 07:31:25;;;;;;;1999.90;999.90;;;;;;;25.03;81.99;99882.34;5047683;28;20064;-57
2022/07/13 07:34:10;;;;;;;1999.90;999.90;;;;;;;25.87;82.40;99879.69;5045868;28;20045;-57
2022/07/13 07:36:54;;;;;;;1999.90;999.90;;;;;;;26.19;78.81;99874.13;5047799;28;20056;-57
2022/07/13 07:39:40;;;;;;;1999.90;999.90;;;;;;;25.92;82.88;99872.06;5047575;28;20037;-57
2022/07/13 07:42:24;;;;;;;1999.90;999.90;;;;;;;26.31;80.33;99882.91;5048026;28;20041;-58
2022/07/13 07:45:09;;;;;;;1999.90;999.90;;;;;;;26.51;80.65;99887.38;5047200;28;20042;-57
2022/07/13 07:47:53;;;;;;;1999.90;999.90;;;;;;;26.13;82.93;99892.59;5047699;28;20102;-57
2022/07/13 07:50:37;;;;;;;1999.90;999.90;;;;;;;26.47;79.83;99890.44;5048939;28;20482;-57
2022/07/13 07:53:22;;;;;;;1999.90;999.90;;;;;;;26.80;76.76;99892.78;5050664;28;20120;-59
2022/07/13 07:56:06;;;;;;;1999.90;999.90;;;;;;;26.59;76.61;99884.00;5048795;28;20086;-57
2022/07/13 07:58:51;;;;;;;1999.90;999.90;;;;;;;26.14;77.09;99888.94;5047307;28;20044;-57
2022/07/13 08:01:35;;;;;;;1999.90;999.90;;;;;;;26.77;76.13;99887.69;5049247;28;20102;-57
2022/07/13 08:04:19;;;;;;;1999.90;999.90;;;;;;;27.52;74.71;99884.41;5050091;28;20052;-58
2022/07/13 08:07:04;;;;;;;1999.90;999.90;;;;;;;27.18;75.77;99877.69;5047492;28;20059;-57
2022/07/13 08:09:48;;;;;;;1999.90;999.90;;;;;;;27.06;72.59;99884.16;5046971;28;20491;-57
2022/07/13 08:12:33;;;;;;;1999.90;999.90;;;;;;;27.24;74.07;99885.16;5048590;28;20060;-56
2022/07/13 08:15:17;;;;;;;1999.90;999.90;;;;;;;26.80;72.81;99873.13;5050176;28;20051;-57
2022/07/13 08:18:02;;;;;;;1999.90;999.90;;;;;;;26.95;72.20;99870.88;5047688;28;20072;-58
2022/07/13 08:20:46;;;;;;;1999.90;999.90;;;;;;;27.59;74.17;99872.06;5048455;28;20060;-57
2022/07/13 08:26:34;;;;;;;1999.90;999.90;;;;;;;27.30;71.78;99870.31;5047304;28;20099;-57
2022/07/13 08:29:19;;;;;;;1999.90;999.90;;;;;;;27.37;67.32;99865.19;5046531;28;20037;-57
2022/07/13 08:32:04;;;;;;;1999.90;999.90;;;;;;;28.28;70.73;99876.22;5046579;28;20075;-57
2022/07/13 08:40:55;;;;;;;1999.90;999.90;;;;;;;27.43;66.44;99868.16;5048048;28;20111;-59
2022/07/13 08:43:39;;;;;;;1999.90;999.90;;;;;;;27.88;67.36;99878.22;5047963;28;20045;-57
2022/07/13 08:46:25;;;;;;;1999.90;999.90;;;;;;;27.65;66.14;99877.69;5048150;28;20056;-57
2022/07/13 08:49:10;;;;;;;1999.90;999.90;;;;;;;27.66;65.55;99879.41;5043271;28;20061;-57
2022/07/13 08:51:56;;;;;;;1999.90;999.90;;;;;;;27.35;65.93;99873.41;5045487;28;20060;-57
2022/07/13 08:54:41;;;;;;;1999.90;999.90;;;;;;;27.29;62.82;99875.81;5042953;28;20049;-58
2022/07/13 08:57:27;;;;;;;1999.90;999.90;;;;;;;27.52;64.41;99882.56;5040642;28;20483;-58
2022/07/13 09:00:12;;;;;;;1999.90;999.90;;;;;;;27.95;62.74;99887.41;5041119;28;21045;-57
2022/07/13 09:02:58;;;;;;;1999.90;999.90;;;;;;;28.09;61.40;99877.16;5038731;28;20048;-57
2022/07/13 09:05:43;;;;;;;1999.90;999.90;;;;;;;28.21;59.23;99881.34;5040098;28;20045;-58
2022/07/13 09:08:28;;;;;;;1999.90;999.90;;;;;;;27.75;63.44;99877.66;5041150;28;20096;-57
2022/07/13 09:11:12;;;;;;;1999.90;999.90;;;;;;;27.74;62.54;99874.13;5043830;28;20053;-58
2022/07/13 09:13:57;;;;;;;1999.90;999.90;;;;;;;27.25;61.42;99880.63;5043528;28;20420;-58
2022/07/13 09:16:44;;;;;;;1999.90;999.90;;;;;;;28.43;63.84;99878.25;5044022;28;20140;-57
2022/07/13 09:19:38;;;;;;;1999.90;999.90;;;;;;;28.48;61.70;99885.88;5042449;28;20048;-57
2022/07/13 09:22:22;;;;;;;1999.90;999.90;;;;;;;28.28;61.28;99873.50;5048941;28;20060;-57
2022/07/13 09:25:07;;;;;;;1999.90;999.90;;;;;;;27.83;60.45;99890.44;5047648;28;20041;-57
2022/07/13 09:27:52;;;;;;;1999.90;999.90;;;;;;;26.78;61.03;99884.03;5046625;28;20481;-58
2022/07/13 09:30:41;;;;;;;1999.90;999.90;;;;;;;27.22;62.96;99879.06;5047099;28;20041;-57
2022/07/13 09:33:33;;;;;;;1999.90;999.90;;;;;;;27.57;61.94;99892.91;5061627;28;20049;-58
2022/07/13 09:36:23;;;;;;;1999.90;999.90;;;;;;;27.70;60.56;99890.72;5045198;28;20041;-57
2022/07/13 09:39:11;;;;;;;1999.90;999.90;;;;;;;27.99;62.50;99881.75;5047679;28;20045;-57
2022/07/13 09:41:56;;;;;;;1999.90;999.90;;;;;;;26.68;62.19;99893.91;5047537;28;20480;-57
2022/07/13 09:47:51;;;;;;;1999.90;999.90;;;;;;;26.89;60.96;99885.72;5047739;28;20048;-59
2022/07/13 09:50:38;;;;;;;1999.90;999.90;;;;;;;28.01;59.14;99877.03;5048801;28;20053;-58
2022/07/13 09:53:27;;;;;;;1999.90;999.90;;;;;;;28.98;59.30;99871.88;5044066;28;20055;-58
2022/07/13 09:56:12;;;;;;;1999.90;999.90;;;;;;;28.78;57.09;99878.44;5041236;28;20037;-57
2022/07/13 09:58:59;;;;;;;1999.90;999.90;;;;;;;27.73;57.14;99899.34;5043848;28;20049;-57
2022/07/13 10:01:47;;;;;;;1999.90;999.90;;;;;;;27.47;57.04;99887.53;5041954;28;20037;-56
2022/07/13 10:04:32;;;;;;;1999.90;999.90;;;;;;;27.78;57.76;99879.25;5046089;28;20052;-57
2022/07/13 10:07:17;;;;;;;1999.90;999.90;;;;;;;28.37;55.89;99888.75;5046062;28;20100;-55
2022/07/13 10:10:05;;;;;;;1999.90;999.90;;;;;;;28.08;56.50;99880.81;5046554;28;20057;-56
2022/07/13 10:12:50;;;;;;;1999.90;999.90;;;;;;;29.42;57.09;99887.28;5044465;28;20050;-56
2022/07/13 10:15:34;;;;;;;1999.90;999.90;;;;;;;29.00;55.77;99885.22;5045846;28;20514;-58
2022/07/13 10:18:30;;;;;;;1999.90;999.90;;;;;;;29.30;53.07;99881.28;5046815;28;20056;-58
2022/07/13 10:21:31;;;;;;;1999.90;999.90;;;;;;;27.71;53.97;99895.09;5044264;28;20064;-56
2022/07/13 10:24:17;;;;;;;1999.90;999.90;;;;;;;27.17;59.82;99894.81;5045907;28;20049;-56
2022/07/13 10:27:26;;;;;;;1999.90;999.90;;;;;;;27.23;58.99;99887.97;5046202;28;20044;-56
2022/07/13 10:30:23;;;;;;;1999.90;999.90;;;;;;;27.50;59.08;99877.34;5045787;28;20049;-56
2022/07/13 10:33:19;;;;;;;1999.90;999.90;;;;;;;27.69;60.48;99891.72;5043673;28;20041;-55
2022/07/13 10:36:04;;;;;;;1999.90;999.90;;;;;;;28.06;58.77;99888.22;5047199;28;20476;-57
2022/07/13 10:39:10;;;;;;;1999.90;999.90;;;;;;;28.79;58.47;99885.50;5044650;28;20040;-56
2022/07/13 10:42:02;;;;;;;1999.90;999.90;;;;;;;29.48;58.28;99879.38;5045211;28;20322;-56
2022/07/13 10:44:47;;;;;;;1999.90;999.90;;;;;;;28.69;55.69;99872.13;5047284;28;20041;-56
2022/07/13 10:47:45;;;;;;;1999.90;999.90;;;;;;;28.56;57.24;99869.78;5045759;28;20048;-57
2022/07/13 10:50:38;;;;;;;1999.90;999.90;;;;;;;29.15;55.72;99874.75;5045678;28;20507;-57
2022/07/13 10:53:37;;;;;;;1999.90;999.90;;;;;;;28.82;56.32;99869.03;5051239;28;20049;-56
2022/07/13 10:56:24;;;;;;;1999.90;999.90;;;;;;;28.64;55.93;99866.34;5049531;28;20041;-58
2022/07/13 10:59:08;;;;;;;1999.90;999.90;;;;;;;29.20;59.61;99869.75;5051708;28;20045;-58
2022/07/13 11:01:53;;;;;;;1999.90;999.90;;;;;;;29.40;55.94;99867.69;5048119;28;20053;-58
2022/07/13 11:04:47;;;;;;;1999.90;999.90;;;;;;;28.92;55.24;99866.25;5048432;28;20045;-57
2022/07/13 11:07:40;;;;;;;1999.90;999.90;;;;;;;29.86;57.21;99865.63;5050418;28;20049;-57
2022/07/13 11:10:33;;;;;;;1999.90;999.90;;;;;;;28.60;56.55;99863.13;5046325;28;20053;-57
2022/07/13 11:13:24;;;;;;;1999.90;999.90;;;;;;;28.75;54.27;99871.50;5045180;28;20432;-59
2022/07/13 11:16:09;;;;;;;1999.90;999.90;;;;;;;29.87;53.32;99859.22;5043675;28;20045;-58
2022/07/13 11:18:54;;;;;;;1999.90;999.90;;;;;;;29.28;50.23;99853.59;5044844;28;20385;-56
2022/07/13 11:22:08;;;;;;;1999.90;999.90;;;;;;;29.98;48.41;99853.53;5044509;28;20037;-58
2022/07/13 11:25:14;;;;;;;1999.90;999.90;;;;;;;29.84;49.78;99848.78;5047727;28;20370;-59
2022/07/13 11:28:10;;;;;;;1999.90;999.90;;;;;;;30.06;50.13;99856.25;5044968;28;20064;-59
2022/07/13 11:30:55;;;;;;;134.57;127.20;;;;;;;29.63;49.37;99859.94;5046182;28;20056;-58
2022/07/13 11:33:48;;;;;;;1999.90;999.90;;;;;;;28.51;47.84;99857.81;5045484;28;20045;-59
2022/07/13 11:36:33;;;;;;;1999.90;999.90;;;;;;;28.17;52.13;99856.53;5047020;28;20045;-58
2022/07/13 11:39:32;;;;;;;1999.90;999.90;;;;;;;27.62;52.89;99844.88;5045914;28;20072;-58
2022/07/13 11:42:22;;;;;;;1999.90;999.90;;;;;;;28.01;52.86;99847.44;5045548;28;20135;-58
2022/07/13 11:45:07;;;;;;;1999.90;999.90;;;;;;;28.11;50.93;99840.16;5045435;28;20521;-59
2022/07/13 11:47:56;;;;;;;1999.90;999.90;;;;;;;28.25;53.79;99845.03;5047800;28;20037;-58
2022/07/13 11:50:50;;;;;;;1999.90;999.90;;;;;;;28.64;51.34;99834.88;5049824;28;20499;-58
2022/07/13 11:53:34;;;;;;;1999.90;999.90;;;;;;;28.68;51.81;99834.56;5045389;28;20480;-58
2022/07/13 11:56:19;;;;;;;1999.90;999.90;;;;;;;28.55;55.70;99825.00;5042590;28;20094;-59
2022/07/13 11:59:03;;;;;;;1999.90;999.90;;;;;;;29.64;54.30;99815.75;5043954;28;20377;-58
2022/07/13 12:01:49;;;;;;;1999.90;999.90;;;;;;;29.28;55.50;99827.50;5044268;28;20140;-58
2022/07/13 12:04:45;;;;;;;1999.90;999.90;;;;;;;29.09;54.25;99814.22;5041643;28;20762;-58
2022/07/13 12:07:32;;;;;;;1999.90;999.90;;;;;;;28.72;53.28;99817.09;5042449;28;20060;-57
2022/07/13 12:10:21;;;;;;;1999.90;999.90;;;;;;;29.25;53.13;99814.34;5044556;28;20427;-58
2022/07/13 12:13:05;;;;;;;1999.90;999.90;;;;;;;29.73;52.58;99820.19;5046367;28;20044;-58
2022/07/13 12:15:51;;;;;;;1999.90;999.90;;;;;;;29.82;54.69;99821.91;5047838;28;20052;-58
2022/07/13 12:19:04;;;;;;;1999.90;999.90;;;;;;;29.18;51.72;99805.16;5048813;28;20037;-57
2022/07/13 12:21:59;;;;;;;1999.90;999.90;;;;;;;30.07;49.08;99811.22;5044766;28;20049;-57
2022/07/13 12:24:45;;;;;;;1999.90;999.90;;;;;;;29.42;49.34;99798.25;5046787;28;20045;-58
2022/07/13 12:27:31;;;;;;;1999.90;999.90;;;;;;;28.87;52.74;99793.97;5045921;28;20049;-59